createdAt,value
2022-09-30T00:02:56.734Z,9.70
2022-09-30T00:07:58.514Z,7.85
2022-09-30T00:13:00.236Z,8.10
2022-09-30T00:18:01.895Z,8.80
2022-09-30T00:23:04.281Z,10.13
2022-09-30T00:28:07.976Z,8.93
2022-09-30T00:33:10.104Z,9.32
2022-09-30T00:38:11.879Z,9.27
2022-09-30T00:43:15.558Z,8.82
2022-09-30T00:48:38.911Z,8.85
2022-09-30T00:54:03.185Z,10.05
2022-09-30T00:59:10.405Z,11.45
2022-09-30T01:04:20.662Z,9.60
2022-09-30T01:09:22.488Z,10.55
2022-09-30T01:14:27.611Z,10.47
2022-09-30T01:19:44.106Z,8.52
2022-09-30T01:25:19.069Z,8.57
2022-09-30T01:30:36.285Z,9.05
2022-09-30T01:35:51.509Z,8.80
2022-09-30T01:41:11.501Z,10.05
2022-09-30T01:46:44.460Z,4.82
2022-09-30T01:52:05.658Z,10.98
2022-09-30T01:57:41.845Z,10.63
2022-09-30T02:02:49.135Z,5.63
2022-09-30T02:08:10.114Z,7.07
2022-09-30T02:13:17.971Z,8.88
2022-09-30T02:18:35.459Z,10.82
2022-09-30T02:23:42.510Z,11.75
2022-09-30T02:28:59.211Z,14.10
2022-09-30T02:34:07.504Z,11.98
2022-09-30T02:39:22.637Z,12.25
2022-09-30T02:44:24.917Z,9.73
2022-09-30T02:49:33.630Z,11.80
2022-09-30T02:54:49.890Z,11.90
2022-09-30T02:59:53.070Z,9.95
2022-09-30T03:04:54.727Z,13.38
2022-09-30T03:09:59.750Z,16.95
2022-09-30T03:15:13.007Z,17.05
2022-09-30T03:20:34.906Z,14.32
2022-09-30T03:26:04.867Z,12.80
2022-09-30T03:31:12.983Z,15.90
2022-09-30T03:36:32.095Z,13.10
2022-09-30T03:41:47.881Z,13.88
2022-09-30T03:46:54.319Z,11.20
2022-09-30T03:51:58.889Z,18.73
2022-09-30T03:57:05.125Z,11.52
2022-09-30T04:02:10.421Z,15.10
2022-09-30T04:07:12.670Z,15.95
2022-09-30T04:12:14.489Z,10.93
2022-09-30T04:17:16.381Z,14.77
2022-09-30T04:22:18.111Z,13.18
2022-09-30T04:27:19.835Z,14.73
2022-09-30T04:32:22.866Z,12.18
2022-09-30T04:37:25.743Z,10.30
2022-09-30T04:42:27.414Z,10.00
2022-09-30T04:47:30.114Z,21.83
2022-09-30T04:52:31.857Z,14.65
2022-09-30T04:57:33.582Z,9.68
2022-09-30T05:02:35.665Z,10.73
2022-09-30T05:07:37.732Z,8.57
2022-09-30T05:12:42.714Z,11.30
2022-09-30T05:17:44.519Z,9.90
2022-09-30T05:22:46.679Z,10.10
2022-09-30T05:27:49.931Z,10.32
2022-09-30T05:32:51.569Z,4.22
2022-09-30T05:37:53.526Z,9.30
2022-09-30T05:42:57.509Z,10.23
2022-09-30T05:48:00.148Z,13.38
2022-09-30T05:53:01.836Z,12.10
2022-09-30T05:58:03.490Z,9.93
2022-09-30T06:03:05.191Z,10.75
2022-09-30T06:08:07.170Z,14.00
2022-09-30T06:13:09.388Z,17.85
2022-09-30T06:18:17.014Z,14.40
2022-09-30T06:23:20.301Z,12.75
2022-09-30T06:28:22.937Z,16.38
2022-09-30T06:33:24.683Z,16.58
2022-09-30T06:38:28.663Z,15.25
2022-09-30T06:43:32.217Z,16.05
2022-09-30T06:48:43.326Z,18.67
2022-09-30T06:53:45.055Z,14.60
2022-09-30T06:58:46.905Z,16.83
2022-09-30T07:03:54.668Z,14.50
2022-09-30T07:08:56.847Z,14.73
2022-09-30T07:13:58.803Z,15.23
2022-09-30T07:19:01.910Z,16.48
2022-09-30T07:24:03.774Z,15.02
2022-09-30T07:29:07.221Z,18.67
2022-09-30T07:34:09.500Z,17.10
2022-09-30T07:39:11.322Z,16.40
2022-09-30T07:44:14.923Z,22.23
2022-09-30T07:49:25.481Z,19.00
2022-09-30T07:54:30.572Z,21.33
2022-09-30T07:59:35.463Z,14.82
2022-09-30T08:04:41.555Z,20.33
2022-09-30T08:09:45.416Z,18.63
2022-09-30T08:14:47.231Z,17.47
2022-09-30T08:19:49.192Z,21.77
2022-09-30T08:24:50.830Z,21.27
2022-09-30T08:29:55.531Z,18.05
2022-09-30T08:34:57.764Z,20.92
2022-09-30T08:39:59.601Z,22.80
2022-09-30T08:45:36.929Z,20.20
2022-09-30T08:51:07.952Z,16.42
2022-09-30T08:56:17.704Z,18.10
2022-09-30T09:01:44.307Z,19.17
2022-09-30T09:07:40.350Z,17.27
2022-09-30T09:12:56.673Z,20.65
2022-09-30T09:18:40.248Z,18.67
2022-09-30T09:23:42.539Z,20.30
2022-09-30T09:29:21.703Z,19.33
2022-09-30T09:34:25.387Z,21.20
2022-09-30T09:39:52.542Z,19.50
2022-09-30T09:45:29.102Z,20.25
2022-09-30T09:51:03.347Z,20.60
2022-09-30T09:56:18.559Z,22.08
2022-09-30T10:01:32.808Z,20.25
2022-09-30T10:06:50.069Z,18.25
2022-09-30T10:12:18.629Z,17.48
2022-09-30T10:17:35.647Z,17.58
2022-09-30T10:22:37.427Z,15.57
2022-09-30T10:27:54.846Z,14.25
2022-09-30T10:32:56.737Z,12.82
2022-09-30T10:38:00.506Z,12.40
2022-09-30T10:43:02.479Z,11.00
2022-09-30T10:48:07.922Z,9.57
2022-09-30T10:53:21.218Z,8.20
2022-09-30T10:58:29.273Z,9.40
2022-09-30T11:03:37.898Z,8.65
2022-09-30T11:08:48.743Z,7.55
2022-09-30T11:14:12.438Z,9.15
2022-09-30T11:19:49.476Z,8.93
2022-09-30T11:24:54.527Z,8.38
2022-09-30T11:30:19.380Z,6.80
2022-09-30T11:35:43.455Z,6.50
2022-09-30T11:40:45.147Z,5.45
2022-09-30T11:46:07.964Z,5.75
2022-09-30T11:51:36.010Z,5.72
2022-09-30T11:56:53.946Z,6.13
2022-09-30T12:02:01.965Z,5.55
2022-09-30T12:07:20.056Z,5.72
2022-09-30T12:12:21.885Z,5.07
2022-09-30T12:17:28.159Z,5.80
2022-09-30T12:22:40.102Z,5.10
2022-09-30T12:28:40.274Z,5.00
2022-09-30T12:34:03.884Z,4.75
2022-09-30T12:39:20.756Z,4.85
2022-09-30T12:44:51.329Z,4.78
2022-09-30T12:49:58.044Z,4.70
2022-09-30T12:55:09.998Z,4.10
2022-09-30T13:00:24.442Z,4.10
2022-09-30T13:05:32.325Z,4.55
2022-09-30T13:10:44.374Z,4.15
2022-09-30T13:15:46.694Z,3.87
2022-09-30T13:21:10.662Z,4.40
2022-09-30T13:26:27.928Z,4.30
2022-09-30T13:31:32.395Z,4.20
2022-09-30T13:36:59.078Z,3.90
2022-09-30T13:42:00.690Z,3.65
2022-09-30T13:47:15.001Z,3.58
2022-09-30T13:52:33.945Z,3.47
2022-09-30T13:57:51.943Z,3.15
2022-09-30T14:03:06.576Z,3.75
2022-09-30T14:08:39.015Z,3.80
2022-09-30T14:13:59.296Z,4.40
2022-09-30T14:19:16.320Z,3.25
2022-09-30T14:24:35.146Z,3.53
2022-09-30T14:29:57.670Z,3.85
2022-09-30T14:35:06.767Z,3.38
2022-09-30T14:40:12.324Z,3.70
2022-09-30T14:45:35.467Z,3.58
2022-09-30T14:50:50.631Z,3.47
2022-09-30T14:55:52.671Z,4.05
2022-09-30T15:01:03.144Z,3.30
2022-09-30T15:06:15.999Z,3.40
2022-09-30T15:11:20.313Z,3.63
2022-09-30T15:16:24.323Z,3.80
2022-09-30T15:21:30.574Z,2.80
2022-09-30T15:26:34.584Z,3.03
2022-09-30T15:31:43.965Z,3.17
2022-09-30T15:36:48.340Z,3.35
2022-09-30T15:41:51.811Z,3.40
2022-09-30T15:47:07.101Z,3.45
2022-09-30T15:52:23.944Z,3.15
2022-09-30T15:57:45.852Z,3.33
2022-09-30T16:02:47.653Z,3.17
2022-09-30T16:07:49.484Z,3.60
2022-09-30T16:17:53.245Z,4.27
2022-09-30T16:22:55.887Z,3.97
2022-09-30T16:28:14.853Z,3.90
2022-09-30T16:33:17.304Z,4.25
2022-09-30T16:38:19.951Z,3.83
2022-09-30T16:43:22.044Z,4.07
2022-09-30T16:48:26.088Z,3.00
2022-09-30T16:53:27.888Z,4.28
2022-09-30T16:58:31.372Z,3.85
2022-09-30T17:03:33.982Z,3.08
2022-09-30T17:08:36.165Z,3.30
2022-09-30T17:13:38.022Z,2.90
2022-09-30T17:18:40.237Z,3.78
2022-09-30T17:23:41.916Z,4.07
2022-09-30T17:28:44.997Z,3.78
2022-09-30T17:33:46.692Z,3.38
2022-09-30T17:38:53.679Z,3.50
2022-09-30T17:43:55.775Z,3.90
2022-09-30T17:48:57.518Z,3.77
2022-09-30T17:54:01.789Z,3.95
2022-09-30T17:59:03.697Z,3.85
2022-09-30T18:04:05.378Z,4.07
2022-09-30T18:09:07.210Z,5.13
2022-09-30T18:14:10.888Z,4.75
2022-09-30T18:24:14.375Z,4.50
2022-09-30T18:29:16.144Z,3.80
2022-09-30T18:34:19.039Z,4.07
2022-09-30T18:44:25.109Z,4.15
2022-09-30T18:49:26.829Z,5.95
2022-09-30T18:54:29.878Z,4.67
2022-09-30T18:59:31.604Z,4.70
2022-09-30T19:04:33.310Z,4.47
2022-09-30T19:09:35.063Z,4.22
2022-09-30T19:14:37.391Z,4.65
2022-09-30T19:19:41.192Z,5.15
2022-09-30T19:24:42.847Z,4.78
2022-09-30T19:29:44.651Z,5.55
2022-09-30T19:34:52.255Z,6.82
2022-09-30T19:40:00.304Z,6.13
2022-09-30T19:45:07.098Z,6.53
2022-09-30T19:50:09.159Z,4.72
2022-09-30T19:55:16.262Z,5.00
2022-09-30T20:00:18.826Z,5.80
2022-09-30T20:05:20.616Z,5.75
2022-09-30T20:10:23.997Z,5.32
2022-09-30T20:15:46.361Z,5.13
2022-09-30T20:20:48.370Z,4.40
2022-09-30T20:25:53.915Z,5.57
2022-09-30T20:30:55.745Z,7.35
2022-09-30T20:36:00.115Z,8.25
2022-09-30T20:41:03.560Z,5.90
2022-09-30T20:46:08.263Z,5.30
2022-09-30T20:51:12.297Z,6.88
2022-09-30T20:56:15.137Z,6.65
2022-09-30T21:01:19.254Z,6.40
2022-09-30T21:06:25.822Z,5.60
2022-09-30T21:11:27.473Z,5.90
2022-09-30T21:16:29.670Z,6.47
2022-09-30T21:21:31.795Z,5.75
2022-09-30T21:26:33.730Z,6.20
2022-09-30T21:36:40.162Z,5.85
2022-09-30T21:41:42.746Z,7.70
2022-09-30T21:46:48.549Z,7.25
2022-09-30T21:51:52.907Z,7.40
2022-09-30T21:56:54.637Z,6.20
2022-09-30T22:01:59.444Z,7.30
2022-09-30T22:07:01.206Z,6.85
2022-09-30T22:12:09.037Z,7.47
2022-09-30T22:17:10.710Z,7.15
2022-09-30T22:22:12.385Z,6.70
2022-09-30T22:27:14.647Z,6.53
2022-09-30T22:32:16.425Z,6.70
2022-09-30T22:37:37.057Z,7.35
2022-09-30T22:42:39.217Z,6.28
2022-09-30T22:47:41.497Z,8.17
2022-09-30T22:52:43.126Z,5.57
2022-09-30T22:57:44.923Z,5.80
2022-09-30T23:02:48.291Z,9.23
2022-09-30T23:07:52.819Z,16.80
2022-09-30T23:12:54.475Z,17.80
2022-09-30T23:17:56.527Z,15.27
2022-09-30T23:22:58.235Z,13.90
2022-09-30T23:28:00.210Z,15.35
2022-09-30T23:33:01.931Z,17.00
2022-09-30T23:38:03.665Z,20.42
2022-09-30T23:43:05.309Z,20.35
2022-09-30T23:48:07.266Z,27.58
2022-09-30T23:53:09.321Z,24.17
2022-09-30T23:58:10.978Z,20.58
